KEHA

Elkhart-Morton County Airport

Elkhart, Kansas, USA
METAR KEHA 201855Z AUTO 15004KT 10SM CLR 21/03 A3040 RMK AO2 T02100027
Observed Flight Rules
Oct-20 @ 18:55 UTC (25 minutes ago) Visual Flight Rules
Wind Visibility Clouds
150° at 4 knots 10 miles
  • Clear skies
Temperatures Readings
Current 21°C / 70°F
Dewpoint 3°C / 37°F
Humidity 31%
Altimeter 30.4" Hg
Pressure 1029 hPa
Elevation 1099
METAR KEHA 201855Z AUTO 15004KT 10SM CLR 21/03 A3040 RMK AO2 T02100027
Observed Flight Rules
Oct-20 @ 18:55 UTC
(25 minutes ago)
VFR
Wind Visibility
150° at 4 knots 10 miles
Clouds
  • Clear skies
Temperature Dewpoint
21°C / 70°F 3°C / 37°F
Humidity Altimeter Pressure
31% 30.4" Hg 1029 hPa